createdAt,value
2023-04-22T00:01:29.762Z,6.20
2023-04-22T00:04:03.226Z,9.82
2023-04-22T00:10:00.926Z,5.57
2023-04-22T00:12:35.924Z,7.50
2023-04-22T00:34:59.942Z,4.97
2023-04-22T00:41:59.228Z,6.18
2023-04-22T00:44:31.961Z,6.18
2023-04-22T00:47:07.611Z,5.03
2023-04-22T00:49:44.518Z,7.55
2023-04-22T00:52:37.890Z,6.07
2023-04-22T00:55:20.920Z,4.47
2023-04-22T00:58:17.691Z,8.15
2023-04-22T01:00:51.700Z,6.05
2023-04-22T01:03:26.247Z,9.85
2023-04-22T01:06:06.403Z,5.68
2023-04-22T01:08:38.667Z,5.38
2023-04-22T01:11:10.240Z,12.05
2023-04-22T01:13:41.146Z,7.63
2023-04-22T01:16:25.696Z,6.70
2023-04-22T01:19:00.619Z,7.95
2023-04-22T01:21:34.972Z,6.60
2023-04-22T01:24:07.734Z,6.40
2023-04-22T01:26:39.985Z,5.00
2023-04-22T01:29:19.495Z,10.70
2023-04-22T01:31:51.441Z,6.22
2023-04-22T01:34:22.597Z,4.43
2023-04-22T01:36:57.590Z,6.78
2023-04-22T01:39:33.424Z,4.57
2023-04-22T01:42:06.204Z,6.53
2023-04-22T01:44:37.812Z,5.38
2023-04-22T01:47:10.354Z,8.77
2023-04-22T01:49:43.814Z,8.25
2023-04-22T01:52:25.871Z,8.50
2023-04-22T01:55:07.402Z,8.18
2023-04-22T01:57:40.809Z,3.53
2023-04-22T02:00:14.265Z,6.70
2023-04-22T02:02:48.864Z,6.93
2023-04-22T02:05:20.652Z,9.75
2023-04-22T02:07:55.317Z,6.82
2023-04-22T02:10:29.086Z,7.57
2023-04-22T02:13:02.516Z,7.40
2023-04-22T02:15:33.998Z,5.78
2023-04-22T02:18:07.675Z,6.35
2023-04-22T02:20:41.794Z,5.78
2023-04-22T02:23:18.252Z,6.53
2023-04-22T02:25:59.698Z,4.43
2023-04-22T02:28:33.081Z,8.05
2023-04-22T02:31:05.163Z,11.93
2023-04-22T02:33:38.775Z,7.68
2023-04-22T02:36:17.008Z,8.63
2023-04-22T02:38:51.937Z,6.72
2023-04-22T02:41:23.316Z,7.30
2023-04-22T02:43:53.935Z,11.52
2023-04-22T02:46:24.596Z,6.30
2023-04-22T02:48:58.646Z,8.23
2023-04-22T02:51:35.282Z,6.03
2023-04-22T02:54:05.867Z,9.48
2023-04-22T02:56:38.783Z,3.95
2023-04-22T02:59:16.845Z,7.03
2023-04-22T03:01:59.034Z,7.03
2023-04-22T03:04:51.864Z,7.40
2023-04-22T03:07:23.695Z,8.63
2023-04-22T03:10:02.352Z,6.63
2023-04-22T03:12:34.229Z,7.13
2023-04-22T03:15:18.053Z,10.93
2023-04-22T03:17:50.447Z,7.75
2023-04-22T03:20:26.448Z,8.07
2023-04-22T03:23:18.651Z,6.38
2023-04-22T03:25:53.952Z,7.25
2023-04-22T03:28:30.108Z,6.45
2023-04-22T03:31:03.544Z,7.55
2023-04-22T03:33:42.503Z,3.33
2023-04-22T03:36:26.888Z,8.27
2023-04-22T03:38:58.823Z,9.27
2023-04-22T03:41:29.940Z,7.60
2023-04-22T03:44:06.491Z,9.07
2023-04-22T03:46:38.204Z,7.25
2023-04-22T03:49:21.542Z,7.13
2023-04-22T03:51:54.630Z,12.23
2023-04-22T03:54:28.758Z,8.77
2023-04-22T03:57:01.576Z,7.45
2023-04-22T03:59:38.082Z,5.57
2023-04-22T04:02:10.269Z,6.63
2023-04-22T04:04:45.465Z,5.93
2023-04-22T04:07:17.580Z,11.68
2023-04-22T04:09:50.760Z,7.32
2023-04-22T04:12:21.923Z,8.27
2023-04-22T04:14:52.455Z,7.63
2023-04-22T04:17:27.904Z,10.43
2023-04-22T04:19:58.178Z,5.78
2023-04-22T04:22:29.525Z,9.73
2023-04-22T04:25:03.781Z,6.13
2023-04-22T04:27:40.804Z,11.30
2023-04-22T04:30:14.016Z,7.97
2023-04-22T04:32:55.516Z,6.90
2023-04-22T04:35:26.946Z,6.72
2023-04-22T04:37:59.746Z,4.38
2023-04-22T04:40:33.262Z,9.07
2023-04-22T04:43:11.418Z,6.20
2023-04-22T04:45:56.321Z,8.05
2023-04-22T04:48:37.994Z,5.50
2023-04-22T04:51:14.595Z,7.70
2023-04-22T04:53:53.485Z,8.55
2023-04-22T04:56:24.827Z,9.27
2023-04-22T04:58:55.925Z,7.47
2023-04-22T05:01:30.085Z,6.55
2023-04-22T05:04:07.854Z,7.63
2023-04-22T05:06:42.487Z,6.68
2023-04-22T05:09:12.771Z,6.00
2023-04-22T05:11:43.596Z,7.95
2023-04-22T05:14:19.179Z,4.93
2023-04-22T05:16:50.385Z,7.10
2023-04-22T05:19:22.453Z,6.38
2023-04-22T05:21:54.689Z,11.20
2023-04-22T05:24:25.133Z,7.60
2023-04-22T05:26:56.292Z,5.70
2023-04-22T05:29:27.189Z,7.60
2023-04-22T05:32:00.247Z,9.07
2023-04-22T05:34:31.524Z,5.70
2023-04-22T05:37:01.969Z,7.38
2023-04-22T05:39:34.456Z,5.75
2023-04-22T05:42:07.703Z,4.15
2023-04-22T05:44:38.195Z,5.68
2023-04-22T05:47:09.597Z,6.22
2023-04-22T05:49:41.086Z,7.90
2023-04-22T05:52:28.689Z,5.78
2023-04-22T05:55:09.811Z,4.72
2023-04-22T05:57:40.753Z,5.93
2023-04-22T06:00:22.480Z,6.32
2023-04-22T06:03:06.735Z,4.93
2023-04-22T06:05:39.300Z,4.95
2023-04-22T06:08:10.694Z,8.32
2023-04-22T06:10:41.851Z,7.75
2023-04-22T06:13:13.978Z,5.55
2023-04-22T06:15:45.139Z,7.50
2023-04-22T06:18:15.407Z,5.00
2023-04-22T06:20:46.366Z,6.90
2023-04-22T06:25:52.122Z,7.70
2023-04-22T06:28:23.227Z,6.70
2023-04-22T06:30:57.698Z,8.52
2023-04-22T06:33:28.377Z,10.57
2023-04-22T06:35:59.244Z,7.10
2023-04-22T06:38:31.012Z,6.25
2023-04-22T06:41:31.571Z,6.35
2023-04-22T06:44:08.061Z,4.38
2023-04-22T06:46:59.263Z,6.57
2023-04-22T06:49:47.166Z,4.00
2023-04-22T06:52:24.733Z,5.55
2023-04-22T06:54:59.887Z,6.00
2023-04-22T06:57:30.169Z,4.68
2023-04-22T07:00:00.215Z,10.88
2023-04-22T07:02:30.634Z,5.78
2023-04-22T07:05:02.209Z,7.57
2023-04-22T07:07:33.387Z,5.13
2023-04-22T07:10:04.398Z,6.10
2023-04-22T07:12:42.540Z,6.20
2023-04-22T07:15:13.852Z,5.32
2023-04-22T07:17:44.476Z,5.93
2023-04-22T07:20:15.811Z,4.65
2023-04-22T07:22:46.118Z,9.50
2023-04-22T07:25:16.292Z,6.07
2023-04-22T07:27:46.638Z,7.75
2023-04-22T07:30:17.251Z,5.38
2023-04-22T07:32:48.879Z,5.55
2023-04-22T07:35:19.696Z,3.83
2023-04-22T07:37:49.693Z,7.57
2023-04-22T07:40:20.188Z,4.05
2023-04-22T07:42:50.974Z,5.97
2023-04-22T07:45:22.951Z,5.68
2023-04-22T07:47:53.226Z,9.00
2023-04-22T07:50:23.531Z,6.28
2023-04-22T07:52:54.621Z,4.78
2023-04-22T07:55:24.895Z,6.00
2023-04-22T07:57:56.056Z,5.88
2023-04-22T08:00:26.965Z,6.63
2023-04-22T08:02:57.447Z,10.30
2023-04-22T08:05:27.772Z,7.57
2023-04-22T08:07:59.318Z,5.28
2023-04-22T08:10:30.328Z,6.82
2023-04-22T08:13:00.745Z,6.28
2023-04-22T08:15:30.901Z,3.55
2023-04-22T08:18:01.248Z,5.63
2023-04-22T08:20:32.341Z,7.82
2023-04-22T08:23:02.368Z,4.25
2023-04-22T08:25:32.955Z,7.90
2023-04-22T08:28:04.168Z,8.45
2023-04-22T08:30:35.667Z,4.28
2023-04-22T08:33:06.548Z,6.53
2023-04-22T08:35:38.959Z,7.72
2023-04-22T08:38:09.315Z,8.15
2023-04-22T08:40:43.831Z,4.35
2023-04-22T08:43:15.991Z,8.18
2023-04-22T08:45:48.383Z,7.00
2023-04-22T08:48:19.145Z,10.55
2023-04-22T08:50:51.941Z,7.35
2023-04-22T08:53:25.418Z,5.85
2023-04-22T08:55:59.296Z,5.90
2023-04-22T08:58:31.664Z,5.28
2023-04-22T09:01:04.829Z,6.15
2023-04-22T09:03:37.336Z,7.43
2023-04-22T09:06:09.234Z,7.05
2023-04-22T09:08:41.164Z,4.00
2023-04-22T09:11:11.934Z,7.22
2023-04-22T09:13:44.593Z,5.75
2023-04-22T09:16:15.461Z,6.80
2023-04-22T09:18:50.104Z,4.35
2023-04-22T09:21:21.018Z,9.98
2023-04-22T09:23:57.060Z,5.25
2023-04-22T09:26:28.349Z,5.20
2023-04-22T09:29:00.710Z,4.10
2023-04-22T09:31:32.147Z,8.88
2023-04-22T09:34:04.237Z,9.00
2023-04-22T09:36:43.418Z,7.82
2023-04-22T09:39:13.610Z,4.30
2023-04-22T09:41:43.765Z,6.75
2023-04-22T09:44:21.943Z,6.57
2023-04-22T09:46:52.737Z,6.22
2023-04-22T09:49:23.275Z,6.60
2023-04-22T09:51:59.516Z,6.90
2023-04-22T09:54:29.820Z,5.93
2023-04-22T09:57:04.414Z,5.90
2023-04-22T09:59:35.081Z,5.47
2023-04-22T10:02:05.994Z,6.75
2023-04-22T10:04:36.793Z,5.95
2023-04-22T10:07:07.599Z,7.90
2023-04-22T10:09:39.193Z,6.80
2023-04-22T10:12:09.592Z,5.90
2023-04-22T10:14:40.340Z,5.20
2023-04-22T10:17:12.468Z,5.20
2023-04-22T10:19:44.249Z,4.88
2023-04-22T10:22:16.418Z,3.95
2023-04-22T10:24:51.548Z,5.88
2023-04-22T10:27:24.422Z,3.50
2023-04-22T10:29:54.581Z,6.90
2023-04-22T10:32:24.634Z,3.58
2023-04-22T10:35:12.253Z,3.53
2023-04-22T10:37:47.404Z,3.50
2023-04-22T10:40:20.315Z,2.65
2023-04-22T10:42:58.037Z,2.63
2023-04-22T10:45:29.441Z,2.70
2023-04-22T10:48:06.731Z,3.67
2023-04-22T10:50:38.363Z,2.63
2023-04-22T10:53:39.406Z,2.67
2023-04-22T10:56:21.708Z,2.13
2023-04-22T10:58:53.292Z,2.42
2023-04-22T11:01:24.135Z,2.22
2023-04-22T11:03:54.519Z,2.83
2023-04-22T11:06:28.579Z,3.50
2023-04-22T11:09:12.646Z,1.45
2023-04-22T11:11:42.813Z,1.92
2023-04-22T11:14:12.939Z,2.28
2023-04-22T11:16:49.031Z,2.10
2023-04-22T11:19:20.094Z,1.65
2023-04-22T11:21:51.297Z,2.30
2023-04-22T11:24:22.748Z,1.83
2023-04-22T11:26:59.128Z,1.17
2023-04-22T11:29:30.117Z,2.97
2023-04-22T11:32:00.833Z,1.95
2023-04-22T11:34:35.129Z,1.77
2023-04-22T11:37:07.220Z,2.80
2023-04-22T11:39:50.226Z,2.42
2023-04-22T11:42:31.061Z,1.33
2023-04-22T11:45:02.403Z,1.58
2023-04-22T11:47:33.178Z,1.38
2023-04-22T11:50:08.895Z,1.77
2023-04-22T11:53:01.166Z,1.00
2023-04-22T11:58:20.137Z,1.20
2023-04-22T12:00:57.528Z,1.50
2023-04-22T12:03:31.751Z,0.90
2023-04-22T12:06:07.769Z,1.90
2023-04-22T12:08:45.064Z,1.27
2023-04-22T12:11:16.262Z,0.55
2023-04-22T12:13:50.938Z,0.73
2023-04-22T12:16:22.481Z,1.23
2023-04-22T12:18:57.305Z,0.63
2023-04-22T12:21:38.889Z,1.60
2023-04-22T12:24:24.501Z,31.27
2023-04-22T12:26:54.935Z,49.03
2023-04-22T12:29:36.575Z,34.85
2023-04-22T12:32:07.631Z,50.60
2023-04-22T12:34:39.143Z,21.38
2023-04-22T12:37:11.359Z,30.55
2023-04-22T12:39:42.853Z,22.05
2023-04-22T12:42:14.738Z,24.05
2023-04-22T12:44:46.224Z,12.48
2023-04-22T12:47:20.338Z,10.13
2023-04-22T12:49:51.444Z,12.63
2023-04-22T12:52:21.805Z,29.85
2023-04-22T12:54:52.798Z,15.77
2023-04-22T12:57:23.322Z,25.38
2023-04-22T13:00:05.334Z,7.13
2023-04-22T13:02:35.955Z,4.93
2023-04-22T13:05:07.736Z,18.98
2023-04-22T13:07:42.204Z,10.20
2023-04-22T13:10:16.960Z,15.98
2023-04-22T13:12:49.589Z,12.48
2023-04-22T13:15:24.536Z,20.63
2023-04-22T13:18:00.581Z,15.40
2023-04-22T13:20:31.716Z,10.68
2023-04-22T13:23:11.185Z,16.58
2023-04-22T13:25:42.278Z,23.08
2023-04-22T13:28:13.989Z,18.45
2023-04-22T13:30:45.352Z,20.30
2023-04-22T13:33:19.382Z,17.95
2023-04-22T13:35:50.815Z,23.45
2023-04-22T13:38:27.717Z,17.17
2023-04-22T13:41:03.442Z,26.23
2023-04-22T13:43:38.701Z,19.58
2023-04-22T13:46:12.577Z,22.67
2023-04-22T13:48:45.667Z,18.13
2023-04-22T13:51:19.898Z,14.02
2023-04-22T13:53:54.214Z,25.48
2023-04-22T13:56:30.612Z,21.85
2023-04-22T13:59:04.453Z,20.67
2023-04-22T14:01:39.960Z,18.45
2023-04-22T14:04:11.857Z,34.50
2023-04-22T14:06:52.889Z,29.38
2023-04-22T14:09:31.311Z,23.20
2023-04-22T14:12:08.216Z,20.13
2023-04-22T14:14:47.328Z,19.75
2023-04-22T14:20:32.110Z,24.75
2023-04-22T14:23:02.743Z,31.83
2023-04-22T14:25:33.352Z,25.98
2023-04-22T14:28:07.768Z,34.15
2023-04-22T14:30:40.599Z,19.98
2023-04-22T14:33:12.783Z,25.98
2023-04-22T14:35:43.623Z,30.52
2023-04-22T14:38:14.914Z,26.77
2023-04-22T14:40:48.096Z,23.13
2023-04-22T14:44:02.795Z,21.95
2023-04-22T14:46:37.794Z,26.60
2023-04-22T14:49:11.754Z,26.10
2023-04-22T14:51:44.485Z,25.38
2023-04-22T14:54:17.388Z,24.27
2023-04-22T14:56:50.007Z,25.10
2023-04-22T14:59:20.911Z,21.55
2023-04-22T15:01:51.570Z,30.50
2023-04-22T15:04:22.924Z,21.83
2023-04-22T15:06:58.792Z,19.52
2023-04-22T15:09:30.638Z,23.25
2023-04-22T15:12:02.013Z,21.80
2023-04-22T15:14:32.794Z,21.13
2023-04-22T15:17:06.526Z,21.85
2023-04-22T15:19:37.360Z,19.33
2023-04-22T15:22:07.626Z,24.25
2023-04-22T15:24:37.717Z,14.43
2023-04-22T15:27:10.019Z,22.23
2023-04-22T15:29:40.520Z,25.65
2023-04-22T15:32:11.908Z,22.92
2023-04-22T15:34:42.841Z,23.73
2023-04-22T15:37:14.018Z,16.88
2023-04-22T15:39:45.460Z,30.50
2023-04-22T15:42:15.882Z,24.92
2023-04-22T15:44:46.617Z,30.42
2023-04-22T15:47:19.088Z,25.63
2023-04-22T15:49:50.893Z,18.73
2023-04-22T15:52:23.608Z,25.50
2023-04-22T15:54:53.931Z,17.85
2023-04-22T15:57:24.707Z,18.42
2023-04-22T16:00:06.852Z,20.60
2023-04-22T16:02:45.522Z,14.32
2023-04-22T16:05:16.657Z,22.23
2023-04-22T16:07:47.741Z,23.00
2023-04-22T16:10:18.693Z,22.77
2023-04-22T16:12:49.787Z,29.25
2023-04-22T16:15:20.311Z,27.05
2023-04-22T16:17:50.425Z,33.05
2023-04-22T16:20:20.806Z,12.65
2023-04-22T16:22:51.654Z,19.00
2023-04-22T16:25:22.464Z,11.50
2023-04-22T16:27:55.972Z,18.08
2023-04-22T16:30:27.179Z,16.52
2023-04-22T16:32:58.121Z,13.02
2023-04-22T16:35:28.636Z,24.33
2023-04-22T16:38:02.582Z,26.55
2023-04-22T16:40:36.707Z,17.13
2023-04-22T16:43:11.811Z,22.52
2023-04-22T16:45:46.506Z,22.98
2023-04-22T16:48:25.969Z,25.70
2023-04-22T16:50:56.761Z,23.48
2023-04-22T16:53:27.966Z,22.48
2023-04-22T16:56:49.195Z,17.95
2023-04-22T16:59:33.009Z,17.88
2023-04-22T17:02:07.086Z,18.77
2023-04-22T17:04:38.635Z,21.75
2023-04-22T17:07:19.132Z,19.23
2023-04-22T17:13:07.670Z,30.27
2023-04-22T17:15:43.124Z,25.60
2023-04-22T17:18:16.258Z,27.20
2023-04-22T17:21:00.693Z,18.58
2023-04-22T17:23:40.582Z,24.77
2023-04-22T17:26:20.915Z,23.30
2023-04-22T17:28:54.775Z,24.73
2023-04-22T17:31:27.094Z,25.92
2023-04-22T17:34:03.005Z,26.60
2023-04-22T17:36:39.338Z,20.02
2023-04-22T17:39:14.092Z,26.63
2023-04-22T17:41:44.834Z,15.68
2023-04-22T17:44:16.630Z,16.48
2023-04-22T17:46:51.953Z,19.77
2023-04-22T17:49:25.748Z,18.27
2023-04-22T17:52:02.332Z,24.17
2023-04-22T17:54:32.804Z,23.60
2023-04-22T17:57:07.158Z,18.67
2023-04-22T17:59:41.276Z,21.02
2023-04-22T18:02:17.007Z,24.48
2023-04-22T18:04:52.362Z,19.77
2023-04-22T18:07:23.326Z,29.95
2023-04-22T18:09:53.788Z,12.40
2023-04-22T18:12:30.386Z,18.40
2023-04-22T18:15:01.516Z,15.48
2023-04-22T18:17:32.867Z,31.15
2023-04-22T18:20:16.905Z,17.33
2023-04-22T18:22:51.323Z,27.90
2023-04-22T18:25:23.197Z,22.80
2023-04-22T18:28:00.920Z,16.35
2023-04-22T18:30:32.876Z,22.80
2023-04-22T18:33:07.149Z,17.13
2023-04-22T18:35:40.821Z,17.02
2023-04-22T18:38:17.640Z,23.85
2023-04-22T18:40:55.939Z,20.30
2023-04-22T18:43:35.228Z,28.92
2023-04-22T18:46:12.650Z,26.33
2023-04-22T18:48:46.830Z,20.98
2023-04-22T18:51:17.761Z,15.77
2023-04-22T18:53:48.297Z,27.25
2023-04-22T18:56:25.596Z,16.38
2023-04-22T18:58:56.059Z,17.73
2023-04-22T19:01:26.459Z,29.50
2023-04-22T19:03:57.609Z,24.83
2023-04-22T19:06:32.573Z,16.40
2023-04-22T19:09:03.108Z,16.17
2023-04-22T19:11:37.658Z,30.50
2023-04-22T19:14:13.313Z,22.33
2023-04-22T19:16:44.263Z,25.52
2023-04-22T19:19:14.596Z,21.30
2023-04-22T19:21:46.743Z,26.80
2023-04-22T19:24:20.545Z,34.63
2023-04-22T19:26:57.383Z,31.33
2023-04-22T19:29:29.378Z,32.95
2023-04-22T19:32:00.446Z,25.52
2023-04-22T19:34:31.647Z,17.02
2023-04-22T19:37:04.283Z,25.45
2023-04-22T19:39:35.358Z,34.72
2023-04-22T19:42:07.409Z,23.27
2023-04-22T19:44:38.795Z,26.52
2023-04-22T19:47:09.151Z,32.83
2023-04-22T19:49:43.851Z,39.50
2023-04-22T19:54:50.788Z,38.38
2023-04-22T19:57:21.995Z,27.63
2023-04-22T19:59:53.700Z,23.55
2023-04-22T20:02:25.205Z,22.50
2023-04-22T20:04:56.555Z,25.10
2023-04-22T20:07:38.666Z,21.65
2023-04-22T20:10:18.515Z,22.05
2023-04-22T20:12:53.955Z,20.48
2023-04-22T20:15:32.736Z,24.20
2023-04-22T20:18:24.539Z,22.58
2023-04-22T20:20:59.926Z,23.42
2023-04-22T20:23:30.541Z,19.52
2023-04-22T20:26:07.656Z,27.00
2023-04-22T20:28:58.971Z,28.20
2023-04-22T20:31:32.169Z,22.55
2023-04-22T20:34:06.598Z,25.48
2023-04-22T20:36:43.162Z,30.88
2023-04-22T20:39:16.251Z,21.60
2023-04-22T20:41:48.963Z,24.27
2023-04-22T20:44:40.793Z,26.02
2023-04-22T20:47:15.320Z,31.23
2023-04-22T20:49:58.100Z,26.20
2023-04-22T20:52:29.833Z,24.67
2023-04-22T20:55:00.205Z,29.02
2023-04-22T20:57:32.523Z,19.80
2023-04-22T21:00:03.966Z,26.77
2023-04-22T21:02:39.059Z,27.02
2023-04-22T21:05:12.391Z,24.38
2023-04-22T21:07:51.560Z,21.35
2023-04-22T21:10:27.978Z,29.35
2023-04-22T21:12:59.068Z,16.73
2023-04-22T21:15:29.423Z,20.75
2023-04-22T21:18:05.329Z,26.17
2023-04-22T21:20:52.375Z,24.73
2023-04-22T21:23:25.248Z,23.25
2023-04-22T21:26:04.168Z,24.08
2023-04-22T21:28:43.809Z,22.27
2023-04-22T21:31:57.647Z,20.85
2023-04-22T21:34:38.815Z,23.13
2023-04-22T21:37:12.820Z,31.33
2023-04-22T21:39:43.695Z,28.38
2023-04-22T21:42:17.845Z,20.73
2023-04-22T21:44:55.359Z,19.88
2023-04-22T21:47:30.118Z,24.60
2023-04-22T21:50:03.255Z,21.92
2023-04-22T21:52:47.059Z,23.13
2023-04-22T21:58:30.845Z,29.10
2023-04-22T22:01:01.985Z,17.95
2023-04-22T22:03:37.369Z,25.90
2023-04-22T22:06:14.880Z,20.90
2023-04-22T22:09:05.761Z,26.23
2023-04-22T22:11:49.946Z,25.33
2023-04-22T22:14:25.353Z,23.23
2023-04-22T22:16:56.391Z,23.20
2023-04-22T22:19:35.177Z,24.30
2023-04-22T22:22:09.205Z,15.30
2023-04-22T22:24:48.860Z,14.65
2023-04-22T22:27:28.782Z,11.82
2023-04-22T22:30:18.028Z,12.20
2023-04-22T22:36:09.469Z,15.65
2023-04-22T22:38:58.716Z,17.85
2023-04-22T22:41:33.867Z,13.27
2023-04-22T22:44:05.596Z,7.20
2023-04-22T22:46:36.808Z,8.80
2023-04-22T22:49:06.982Z,9.57
2023-04-22T22:51:38.936Z,10.23
2023-04-22T22:54:09.181Z,9.20
2023-04-22T22:56:39.704Z,9.10
2023-04-22T22:59:12.750Z,8.68
2023-04-22T23:01:43.774Z,8.45
2023-04-22T23:04:14.161Z,10.88
2023-04-22T23:06:47.254Z,9.23
2023-04-22T23:09:21.745Z,9.88
2023-04-22T23:11:57.296Z,4.43
2023-04-22T23:14:31.546Z,9.93
2023-04-22T23:17:02.809Z,7.65
2023-04-22T23:19:34.919Z,9.70
2023-04-22T23:22:09.063Z,8.15
2023-04-22T23:24:42.799Z,9.90
2023-04-22T23:27:18.695Z,9.52
2023-04-22T23:29:50.468Z,9.38
2023-04-22T23:32:41.124Z,7.60
2023-04-22T23:35:24.178Z,11.23
2023-04-22T23:38:02.413Z,10.43
2023-04-22T23:40:34.188Z,12.43
2023-04-22T23:43:05.150Z,11.07
2023-04-22T23:45:35.362Z,8.50
2023-04-22T23:48:07.393Z,12.43
2023-04-22T23:50:49.250Z,12.38
2023-04-22T23:53:28.747Z,9.48
2023-04-22T23:56:00.410Z,10.32
2023-04-22T23:58:31.552Z,8.90
